Rosendale, Wisconsin
Current Conditions -  °F | °C
As of 12:53 PM on Thursday 23 Oct 2014 (Local Time) from KFLD Reporting Station
Few Clouds Few Clouds  
Wind Chill: 53°   Ceiling: Unl
Heat Index: 53°   Visibility: 10mi
Dew Point: 40°   Wind: 12mph
Humidity: 61%   Direction: 200°SSW
Pressure: 30.09"   Gusts: NA
Location:  43.81°N, 88.67°W
Report Text: KFLD 231753Z AUTO 20010KT 10SM FEW085 12/04 A3009 RMK AO2 SLP195 T01170044 10117 20011 56020
Loading
Personal Weather Stations






























Interactive Weather Map
Tropical Storm Tracking
New forecast layout! Learn more

10-Day Weather Forecast

Advertisements
Track Severe Weather on mobile